Time;durP1;ratioP1;P1;durP2;ratioP2;P2;SDS_P1;SDS_P2;PMS_P1;PMS_P2;Temp;Humidity;BMP_temperature;BMP_pressure;BME280_temperature;BME280_humidity;BME280_pressure;Samples;Min_cycle;Max_cycle;Signal;HPM_P1;HPM_P2
2022/08/25 00:01:17;;;;;;;4.90;3.30;;;24.70;99.90;;;;;;5012900;28;20250;-89
2022/08/25 00:03:44;;;;;;;3.40;3.05;;;24.80;99.90;;;;;;5015910;28;20180;-89
2022/08/25 00:06:10;;;;;;;9.40;4.10;;;24.70;99.90;;;;;;5017528;28;20252;-88
2022/08/25 00:08:37;;;;;;;8.40;4.30;;;24.70;99.90;;;;;;5021207;28;20685;-88
2022/08/25 00:11:05;;;;;;;5.78;3.20;;;24.80;99.90;;;;;;5023144;28;20219;-89
2022/08/25 00:13:32;;;;;;;3.38;3.08;;;24.70;99.90;;;;;;5025758;28;20196;-88
2022/08/25 00:15:58;;;;;;;3.40;3.20;;;24.60;99.90;;;;;;5024616;28;20630;-87
2022/08/25 00:18:24;;;;;;;4.15;3.42;;;24.50;99.90;;;;;;5022140;28;20184;-89
2022/08/25 00:20:50;;;;;;;3.25;3.00;;;24.40;99.90;;;;;;5016588;28;20172;-87
2022/08/25 00:23:17;;;;;;;8.70;3.50;;;24.50;99.90;;;;;;5017419;28;20169;-87
2022/08/25 00:25:42;;;;;;;10.90;3.78;;;24.40;99.90;;;;;;5016581;28;20175;-88
2022/08/25 00:28:09;;;;;;;4.28;3.90;;;24.40;99.90;;;;;;5016725;28;20948;-88
2022/08/25 00:30:35;;;;;;;4.50;3.88;;;24.30;99.90;;;;;;5016376;28;20223;-88
2022/08/25 00:33:02;;;;;;;4.47;3.40;;;24.40;99.90;;;;;;5016573;28;20196;-88
2022/08/25 00:35:28;;;;;;;4.00;3.65;;;24.40;99.90;;;;;;5016483;28;20204;-88
2022/08/25 00:37:54;;;;;;;4.03;3.65;;;24.30;99.90;;;;;;5016261;28;20213;-88
2022/08/25 00:40:20;;;;;;;4.38;3.97;;;24.30;99.90;;;;;;5017463;28;20226;-88
2022/08/25 00:42:46;;;;;;;4.32;4.03;;;24.20;99.90;;;;;;5016762;28;20184;-88
2022/08/25 00:45:11;;;;;;;3.92;3.63;;;23.90;99.90;;;;;;5017941;28;20184;-88
2022/08/25 00:47:38;;;;;;;10.10;4.00;;;24.00;99.90;;;;;;5016727;28;20180;-89
2022/08/25 00:50:07;;;;;;;7.40;3.92;;;24.00;99.90;;;;;;5016075;28;20176;-88
2022/08/25 00:52:47;;;;;;;6.50;4.18;;;24.00;99.90;;;;;;5016417;28;20191;-89
2022/08/25 00:55:22;;;;;;;5.10;4.70;;;23.90;99.90;;;;;;5017839;28;20251;-89
2022/08/25 00:58:05;;;;;;;5.00;4.60;;;23.90;99.90;;;;;;5016424;28;20191;-88
2022/08/25 01:00:38;;;;;;;5.40;4.68;;;23.90;99.90;;;;;;5015521;28;20263;-88
2022/08/25 01:03:05;;;;;;;5.07;4.45;;;23.90;99.90;;;;;;5015681;28;20216;-88
2022/08/25 01:05:31;;;;;;;5.35;4.18;;;23.90;99.90;;;;;;5016922;28;20200;-88
2022/08/25 01:07:58;;;;;;;6.65;4.78;;;23.80;99.90;;;;;;5016956;28;20580;-88
2022/08/25 01:10:26;;;;;;;4.57;4.28;;;23.90;99.90;;;;;;5018345;28;20161;-89
2022/08/25 01:12:56;;;;;;;9.70;5.03;;;23.80;99.90;;;;;;5016622;28;20661;-88
2022/08/25 01:15:22;;;;;;;5.03;4.13;;;23.90;99.90;;;;;;5016202;28;20719;-88
2022/08/25 01:17:53;;;;;;;8.20;4.40;;;23.90;99.90;;;;;;5015543;28;20173;-88
2022/08/25 01:20:22;;;;;;;9.52;4.40;;;23.80;99.90;;;;;;5015851;28;20164;-87
2022/08/25 01:22:49;;;;;;;4.70;4.40;;;23.80;99.90;;;;;;5015418;28;20227;-87
2022/08/25 01:25:41;;;;;;;5.43;4.68;;;23.80;99.90;;;;;;5016943;28;20215;-85
2022/08/25 01:28:07;;;;;;;5.05;4.53;;;23.80;99.90;;;;;;5018725;28;20247;-88
2022/08/25 01:30:33;;;;;;;6.63;4.45;;;23.80;99.90;;;;;;5016061;28;20157;-88
2022/08/25 01:33:03;;;;;;;10.55;4.18;;;23.70;99.90;;;;;;5016740;28;20595;-88
2022/08/25 01:35:29;;;;;;;3.88;3.58;;;23.80;99.90;;;;;;5015433;28;20264;-89
2022/08/25 01:37:54;;;;;;;5.07;3.80;;;23.80;99.90;;;;;;5016302;28;20629;-89
2022/08/25 01:40:21;;;;;;;4.93;4.53;;;23.80;99.90;;;;;;5016308;28;20291;-89
2022/08/25 01:43:05;;;;;;;5.15;3.65;;;23.80;99.90;;;;;;5015244;28;20193;-89
2022/08/25 01:45:35;;;;;;;8.50;4.38;;;23.70;99.90;;;;;;5015341;28;20259;-89
2022/08/25 01:48:01;;;;;;;5.10;3.80;;;23.70;99.90;;;;;;5015804;28;20164;-89
2022/08/25 01:50:27;;;;;;;7.40;4.72;;;23.60;99.90;;;;;;5014715;28;20165;-88
2022/08/25 01:52:58;;;;;;;16.33;4.88;;;23.60;99.90;;;;;;5016888;28;20208;-89
2022/08/25 01:55:24;;;;;;;5.05;3.80;;;23.60;99.90;;;;;;5014997;28;20212;-89
2022/08/25 01:57:50;;;;;;;5.47;4.35;;;23.50;99.90;;;;;;5015394;28;20160;-89
2022/08/25 02:00:17;;;;;;;7.53;3.75;;;23.50;99.90;;;;;;5013754;28;20256;-89
2022/08/25 02:02:43;;;;;;;6.97;4.40;;;23.50;99.90;;;;;;5013442;28;20185;-89
2022/08/25 02:05:12;;;;;;;12.77;5.43;;;23.50;99.90;;;;;;5014593;28;20169;-89
2022/08/25 02:07:39;;;;;;;9.77;4.30;;;23.60;99.90;;;;;;5014296;28;20164;-89
2022/08/25 02:10:06;;;;;;;9.80;4.65;;;23.50;99.90;;;;;;5014793;28;20184;-89
2022/08/25 02:12:32;;;;;;;13.30;4.70;;;23.30;99.90;;;;;;5014440;28;20188;-88
2022/08/25 02:15:00;;;;;;;10.10;5.30;;;23.30;99.90;;;;;;5014743;28;20657;-89
2022/08/25 02:17:26;;;;;;;10.52;4.70;;;23.30;99.90;;;;;;5015606;28;20214;-89
2022/08/25 02:19:52;;;;;;;5.50;5.00;;;23.30;99.90;;;;;;5014195;28;20168;-89
2022/08/25 02:22:18;;;;;;;7.03;4.13;;;23.40;99.90;;;;;;5014141;28;20199;-89
2022/08/25 02:24:43;;;;;;;7.00;4.40;;;23.30;99.90;;;;;;5014515;28;20175;-89
2022/08/25 02:27:09;;;;;;;8.25;5.10;;;23.30;99.90;;;;;;5014208;28;20647;-89
2022/08/25 02:29:35;;;;;;;9.30;5.05;;;23.30;99.90;;;;;;5014284;28;20283;-89
2022/08/25 02:32:01;;;;;;;4.80;4.40;;;23.20;99.90;;;;;;5014091;28;20657;-89
2022/08/25 02:34:27;;;;;;;4.50;4.20;;;23.10;99.90;;;;;;5014193;28;20203;-89
2022/08/25 02:36:53;;;;;;;5.13;4.50;;;23.10;99.90;;;;;;5013958;28;20199;-88
2022/08/25 02:39:18;;;;;;;4.55;4.25;;;23.00;99.90;;;;;;5013833;28;20959;-88
2022/08/25 02:41:44;;;;;;;9.10;4.93;;;23.00;99.90;;;;;;5014035;28;20199;-89
2022/08/25 02:44:09;;;;;;;5.22;4.65;;;22.90;99.90;;;;;;5013776;28;20177;-88
2022/08/25 02:46:36;;;;;;;4.63;4.32;;;22.80;99.90;;;;;;5015173;28;20173;-89
2022/08/25 02:49:02;;;;;;;6.25;5.07;;;22.80;99.90;;;;;;5014169;28;20252;-87
2022/08/25 02:51:28;;;;;;;9.35;4.80;;;22.70;99.90;;;;;;5013891;28;20224;-88
2022/08/25 02:53:56;;;;;;;8.55;4.75;;;22.80;99.90;;;;;;5014529;28;20533;-88
2022/08/25 02:56:23;;;;;;;6.65;5.13;;;22.80;99.90;;;;;;5014253;28;20169;-88
2022/08/25 02:58:49;;;;;;;8.88;5.35;;;22.80;99.90;;;;;;5014968;28;20174;-89
2022/08/25 03:01:15;;;;;;;5.55;5.07;;;22.70;99.90;;;;;;5013767;28;20275;-89
2022/08/25 03:03:43;;;;;;;5.13;4.72;;;22.70;99.90;;;;;;5013940;28;20184;-88
2022/08/25 03:06:13;;;;;;;10.52;5.30;;;22.70;99.90;;;;;;5014616;28;20172;-89
2022/08/25 03:08:41;;;;;;;13.25;4.75;;;22.70;99.90;;;;;;5014819;28;20165;-88
2022/08/25 03:11:07;;;;;;;6.90;5.45;;;22.60;99.90;;;;;;5013795;28;20196;-89
2022/08/25 03:13:32;;;;;;;6.75;5.50;;;22.70;99.90;;;;;;5013469;28;20257;-88
2022/08/25 03:15:59;;;;;;;5.78;5.28;;;22.90;99.90;;;;;;5012744;28;20192;-89
2022/08/25 03:18:25;;;;;;;6.95;6.43;;;22.80;99.90;;;;;;5012707;28;21243;-87
2022/08/25 03:20:50;;;;;;;7.82;5.10;;;22.70;99.90;;;;;;5012809;28;20188;-89
2022/08/25 03:23:16;;;;;;;6.25;5.45;;;22.60;99.90;;;;;;5013795;28;20212;-88
2022/08/25 03:28:29;;;;;;;6.07;5.13;;;22.60;99.90;;;;;;5013744;28;20183;-89
2022/08/25 03:30:55;;;;;;;6.25;5.63;;;22.50;99.90;;;;;;5012626;28;20196;-87
2022/08/25 03:33:21;;;;;;;10.75;5.63;;;22.50;99.90;;;;;;5013416;28;20199;-88
2022/08/25 03:35:47;;;;;;;6.18;5.57;;;22.50;99.90;;;;;;5014191;28;20204;-87
2022/08/25 03:38:12;;;;;;;16.23;6.25;;;22.50;99.90;;;;;;5013191;28;20168;-88
2022/08/25 03:40:38;;;;;;;5.65;5.18;;;22.50;99.90;;;;;;5012903;28;20637;-89
2022/08/25 03:43:04;;;;;;;7.88;5.88;;;22.60;99.90;;;;;;5012874;28;20239;-89
2022/08/25 03:45:30;;;;;;;6.80;4.63;;;22.60;99.90;;;;;;5013055;28;20196;-89
2022/08/25 03:47:55;;;;;;;8.48;5.35;;;22.50;99.90;;;;;;5013164;28;20180;-90
2022/08/25 03:50:25;;;;;;;5.78;5.22;;;22.50;99.90;;;;;;5014102;28;20173;-87
2022/08/25 03:52:53;;;;;;;11.20;5.78;;;22.40;99.90;;;;;;5014230;28;20181;-87
2022/08/25 03:55:21;;;;;;;8.30;6.43;;;22.40;99.90;;;;;;5013333;28;20204;-88
2022/08/25 03:57:46;;;;;;;6.63;6.13;;;22.40;99.90;;;;;;5012825;28;20532;-88
2022/08/25 04:00:12;;;;;;;9.60;5.50;;;22.40;99.90;;;;;;5012513;28;20183;-88
2022/08/25 04:02:39;;;;;;;18.05;6.55;;;22.30;99.90;;;;;;5013089;28;20192;-88
2022/08/25 04:05:06;;;;;;;8.63;7.43;;;22.40;99.90;;;;;;5013139;28;20268;-88
2022/08/25 04:07:31;;;;;;;11.80;5.68;;;22.40;99.90;;;;;;5014192;28;20709;-89
2022/08/25 04:09:57;;;;;;;10.98;5.90;;;22.30;99.90;;;;;;5014094;28;20192;-85
2022/08/25 04:12:29;;;;;;;6.95;6.35;;;22.30;99.90;;;;;;5013726;28;20239;-88
2022/08/25 04:14:54;;;;;;;9.20;6.20;;;22.20;99.90;;;;;;5013729;28;20217;-86
2022/08/25 04:17:21;;;;;;;9.38;6.72;;;22.20;99.90;;;;;;5014201;28;20216;-89
2022/08/25 04:19:47;;;;;;;29.05;7.63;;;22.20;99.90;;;;;;5012738;28;20172;-88
2022/08/25 04:22:12;;;;;;;23.13;6.43;;;22.20;99.90;;;;;;5013533;28;20311;-89
2022/08/25 04:24:38;;;;;;;11.00;7.40;;;22.10;99.90;;;;;;5014173;28;20160;-89
2022/08/25 04:27:04;;;;;;;24.00;7.20;;;22.20;99.90;;;;;;5012715;28;20689;-88
2022/08/25 04:29:29;;;;;;;8.30;6.38;;;22.10;99.90;;;;;;5012681;28;20180;-88
2022/08/25 04:31:55;;;;;;;11.50;5.80;;;22.10;99.90;;;;;;5012432;28;20291;-88
2022/08/25 04:34:23;;;;;;;7.32;6.72;;;22.10;99.90;;;;;;5012717;28;20193;-88
2022/08/25 04:36:49;;;;;;;13.30;6.18;;;22.10;99.90;;;;;;5013868;28;20188;-88
2022/08/25 04:39:16;;;;;;;7.80;6.53;;;22.20;99.90;;;;;;5012609;28;20172;-89
2022/08/25 04:41:41;;;;;;;7.97;6.07;;;22.10;99.90;;;;;;5012543;28;20201;-89
2022/08/25 04:44:07;;;;;;;7.35;6.38;;;22.10;99.90;;;;;;5014402;28;20177;-89
2022/08/25 04:46:36;;;;;;;14.98;6.63;;;22.10;99.90;;;;;;5012472;28;20529;-87
2022/08/25 04:49:03;;;;;;;9.77;7.35;;;22.00;99.90;;;;;;5012373;28;20255;-89
2022/08/25 04:51:35;;;;;;;18.40;7.50;;;22.10;99.90;;;;;;5016975;28;20573;-87
2022/08/25 04:54:06;;;;;;;12.95;6.85;;;22.20;99.90;;;;;;5015959;28;20185;-86
2022/08/25 04:56:32;;;;;;;6.63;6.05;;;22.20;99.90;;;;;;5015845;28;20176;-88
2022/08/25 04:59:03;;;;;;;19.92;7.45;;;22.40;99.90;;;;;;5016641;28;20165;-88
2022/08/25 05:01:29;;;;;;;15.65;6.18;;;22.30;99.90;;;;;;5016109;28;20219;-89
2022/08/25 05:03:58;;;;;;;8.93;6.75;;;22.30;99.90;;;;;;5015787;28;20181;-88
2022/08/25 05:06:25;;;;;;;10.90;6.07;;;22.20;99.90;;;;;;5016998;28;20161;-88
2022/08/25 05:08:50;;;;;;;7.88;6.40;;;22.20;99.90;;;;;;5017171;28;20230;-89
2022/08/25 05:11:17;;;;;;;7.63;6.75;;;22.20;99.90;;;;;;5016025;28;20200;-86
2022/08/25 05:13:48;;;;;;;8.65;6.47;;;22.20;99.90;;;;;;5015428;28;20621;-87
2022/08/25 05:16:14;;;;;;;14.32;6.32;;;22.20;99.90;;;;;;5015812;28;20644;-88
2022/08/25 05:18:41;;;;;;;11.93;6.35;;;22.20;99.90;;;;;;5015608;28;20168;-88
2022/08/25 05:21:10;;;;;;;6.53;5.85;;;22.40;99.90;;;;;;5017783;28;20196;-87
2022/08/25 05:23:36;;;;;;;20.92;6.65;;;22.50;99.90;;;;;;5016775;28;20251;-88
2022/08/25 05:26:06;;;;;;;11.02;6.18;;;22.60;99.90;;;;;;5015551;28;20179;-89
2022/08/25 05:28:32;;;;;;;19.95;6.20;;;22.60;99.90;;;;;;5017076;28;20216;-89
2022/08/25 05:31:00;;;;;;;45.20;9.77;;;22.70;99.90;;;;;;5015479;28;20176;-87
2022/08/25 05:33:26;;;;;;;26.35;7.25;;;22.60;99.90;;;;;;5018056;28;20172;-87
2022/08/25 05:35:52;;;;;;;42.83;7.80;;;22.60;99.90;;;;;;5017051;28;20212;-89
2022/08/25 05:38:17;;;;;;;8.55;5.63;;;22.70;99.90;;;;;;5017259;28;20173;-89
2022/08/25 05:40:43;;;;;;;12.75;6.13;;;22.90;99.90;;;;;;5015241;28;20228;-88
2022/08/25 05:43:09;;;;;;;11.65;5.80;;;23.00;99.90;;;;;;5016468;28;20662;-88
2022/08/25 05:45:35;;;;;;;8.80;5.38;;;23.20;99.90;;;;;;5016311;28;20187;-87
2022/08/25 05:48:01;;;;;;;10.32;4.63;;;23.40;99.90;;;;;;5016235;28;20172;-88
2022/08/25 05:50:27;;;;;;;10.57;5.63;;;23.50;99.90;;;;;;5015513;28;20219;-88
2022/08/25 05:52:52;;;;;;;13.55;5.53;;;23.50;99.90;;;;;;5016473;28;20192;-88
2022/08/25 05:55:18;;;;;;;12.20;5.88;;;23.60;99.90;;;;;;5015008;28;20207;-88
2022/08/25 05:57:44;;;;;;;13.27;5.53;;;23.80;99.90;;;;;;5016096;28;20160;-89
2022/08/25 06:00:10;;;;;;;18.52;5.60;;;24.00;99.90;;;;;;5014391;28;20188;-90
2022/08/25 06:02:42;;;;;;;12.90;5.43;;;24.10;99.90;;;;;;5015176;28;20185;-90
2022/08/25 06:05:09;;;;;;;22.10;6.80;;;24.30;99.90;;;;;;5015139;28;20185;-87
2022/08/25 06:07:35;;;;;;;38.35;7.55;;;24.50;99.90;;;;;;5014535;28;20172;-88
2022/08/25 06:10:07;;;;;;;48.85;8.18;;;24.60;99.90;;;;;;5016176;28;20179;-89
2022/08/25 06:12:34;;;;;;;84.80;10.65;;;24.60;99.90;;;;;;5015671;28;20212;-93
2022/08/25 06:15:01;;;;;;;85.40;10.45;;;24.60;99.90;;;;;;5016312;28;20220;-91
2022/08/25 06:17:26;;;;;;;58.47;9.15;;;24.70;99.90;;;;;;5014917;28;20669;-91
2022/08/25 06:19:53;;;;;;;46.28;7.63;;;24.90;99.90;;;;;;5016408;28;20219;-87
2022/08/25 06:22:20;;;;;;;35.40;7.07;;;25.00;99.90;;;;;;5014309;28;20203;-90
2022/08/25 06:24:46;;;;;;;23.92;6.70;;;25.00;99.90;;;;;;5015512;28;20176;-91
2022/08/25 06:27:11;;;;;;;63.78;6.90;;;25.10;99.90;;;;;;5014193;28;20175;-84
2022/08/25 06:29:37;;;;;;;135.52;14.18;;;25.20;99.90;;;;;;5013535;28;20177;-86
2022/08/25 06:32:03;;;;;;;114.63;13.15;;;25.40;99.90;;;;;;5013693;28;20196;-85
2022/08/25 06:34:28;;;;;;;65.00;8.90;;;25.30;99.90;;;;;;5012569;28;20715;-86
2022/08/25 06:36:54;;;;;;;56.78;9.10;;;25.30;99.90;;;;;;5012617;28;20522;-85
2022/08/25 06:39:21;;;;;;;61.65;7.53;;;25.40;99.90;;;;;;5012046;28;20518;-85
2022/08/25 06:41:53;;;;;;;96.38;11.35;;;25.50;99.90;;;;;;5012072;28;20224;-84
2022/08/25 06:44:20;;;;;;;95.03;9.00;;;25.60;99.90;;;;;;5012236;28;20540;-85
2022/08/25 06:46:46;;;;;;;64.70;8.85;;;25.60;99.90;;;;;;5011202;28;20191;-85
2022/08/25 06:49:11;;;;;;;57.22;7.20;;;25.70;99.90;;;;;;5015342;28;20169;-84
2022/08/25 06:51:37;;;;;;;54.72;6.97;;;25.90;99.90;;;;;;5037689;28;20240;-85
2022/08/25 06:54:05;;;;;;;23.50;5.35;;;26.10;99.90;;;;;;5037732;28;20195;-84
2022/08/25 06:56:30;;;;;;;19.65;5.47;;;26.20;99.90;;;;;;5036818;28;20256;-84
2022/08/25 06:58:56;;;;;;;18.65;5.35;;;26.40;99.90;;;;;;5036533;28;20160;-83
2022/08/25 07:01:25;;;;;;;20.70;4.88;;;26.50;99.90;;;;;;5037633;28;20223;-87
2022/08/25 07:03:56;;;;;;;27.33;5.05;;;26.50;99.90;;;;;;5036729;28;20176;-87
2022/08/25 07:06:21;;;;;;;46.80;5.72;;;26.70;99.90;;;;;;5037506;28;20217;-90
2022/08/25 07:08:47;;;;;;;78.20;7.35;;;26.80;99.90;;;;;;5036803;28;20232;-88
2022/08/25 07:11:14;;;;;;;43.35;6.70;;;26.80;99.90;;;;;;5035434;28;20181;-90
2022/08/25 07:13:40;;;;;;;27.38;4.93;;;27.00;99.90;;;;;;5018923;28;20168;-88
2022/08/25 07:16:06;;;;;;;27.08;4.60;;;27.10;99.90;;;;;;5014229;28;20226;-87
2022/08/25 07:18:33;;;;;;;40.03;5.32;;;27.30;99.90;;;;;;5015202;28;20241;-86
2022/08/25 07:20:59;;;;;;;13.43;3.80;;;27.50;99.90;;;;;;5015396;28;20169;-90
2022/08/25 07:23:25;;;;;;;17.83;3.67;;;27.60;99.90;;;;;;5015590;28;20174;-90
2022/08/25 07:25:51;;;;;;;15.20;3.67;;;27.70;99.90;;;;;;5015390;28;20184;-92
2022/08/25 07:28:17;;;;;;;18.75;3.38;;;27.80;99.90;;;;;;5014289;28;20208;-90
2022/08/25 07:30:43;;;;;;;20.30;3.67;;;27.80;99.90;;;;;;5014736;28;20247;-91
2022/08/25 07:33:10;;;;;;;20.02;3.63;;;27.90;99.90;;;;;;5014528;28;20219;-92
2022/08/25 07:35:36;;;;;;;47.60;4.32;;;28.00;99.90;;;;;;5014867;28;20191;-91
2022/08/25 07:38:03;;;;;;;54.55;5.78;;;28.10;99.90;;;;;;5016700;28;20251;-92
2022/08/25 07:40:31;;;;;;;98.70;6.97;;;28.20;99.90;;;;;;5013993;28;20168;-91
2022/08/25 07:43:00;;;;;;;78.47;8.23;;;28.40;99.90;;;;;;5013559;28;20260;-92
2022/08/25 07:45:29;;;;;;;171.65;11.50;;;28.60;99.90;;;;;;5014002;28;20195;-90
2022/08/25 07:48:01;;;;;;;64.57;5.97;;;28.70;99.90;;;;;;5014046;28;20199;-91
2022/08/25 07:50:28;;;;;;;15.70;3.15;;;28.80;99.90;;;;;;5014110;28;20171;-89
2022/08/25 07:52:55;;;;;;;16.42;3.25;;;29.00;99.90;;;;;;5013868;28;20199;-92
2022/08/25 07:55:22;;;;;;;14.43;2.67;;;29.10;99.90;;;;;;5013505;28;20299;-91
2022/08/25 07:57:47;;;;;;;14.02;2.80;;;29.20;99.90;;;;;;5013824;28;20175;-92
2022/08/25 08:00:15;;;;;;;9.77;2.17;;;29.30;99.90;;;;;;5014203;28;20172;-91
2022/08/25 08:02:42;;;;;;;8.43;2.50;;;29.30;99.90;;;;;;5013473;28;20195;-92
2022/08/25 08:05:09;;;;;;;6.75;2.35;;;29.50;99.90;;;;;;5013406;28;20168;-91
2022/08/25 08:07:35;;;;;;;6.22;2.33;;;29.50;99.90;;;;;;5023076;28;20175;-89
2022/08/25 08:10:02;;;;;;;4.65;2.38;;;29.40;99.90;;;;;;5026338;28;20693;-89
2022/08/25 08:12:28;;;;;;;15.10;2.28;;;29.50;99.90;;;;;;5014469;28;20266;-89
2022/08/25 08:14:53;;;;;;;4.35;2.20;;;29.40;99.90;;;;;;5013397;28;20653;-88
2022/08/25 08:17:19;;;;;;;10.93;2.70;;;29.40;99.90;;;;;;5013154;28;20172;-91
2022/08/25 08:19:45;;;;;;;16.50;2.28;;;29.30;99.90;;;;;;5014328;28;20625;-92
2022/08/25 08:22:14;;;;;;;7.28;2.88;;;29.40;99.90;;;;;;5013286;28;20199;-91
2022/08/25 08:24:41;;;;;;;12.30;2.15;;;29.50;99.90;;;;;;5015799;28;20176;-92
2022/08/25 08:27:08;;;;;;;18.10;2.28;;;29.50;99.90;;;;;;5016821;28;20648;-90
2022/08/25 08:29:35;;;;;;;9.40;2.30;;;29.70;99.90;;;;;;5017625;28;20183;-91
2022/08/25 08:32:02;;;;;;;12.20;2.92;;;29.80;99.90;;;;;;5018040;28;20192;-90
2022/08/25 08:34:28;;;;;;;16.48;2.50;;;29.80;99.90;;;;;;5017047;28;20192;-90
2022/08/25 08:36:54;;;;;;;4.40;2.47;;;29.90;99.90;;;;;;5017048;28;20176;-92
2022/08/25 08:39:20;;;;;;;11.63;2.22;;;29.90;99.90;;;;;;5017187;28;20164;-91
2022/08/25 08:42:16;;;;;;;5.40;2.10;;;30.00;99.90;;;;;;5017896;28;20584;-91
2022/08/25 08:44:55;;;;;;;11.95;2.15;;;30.20;99.80;;;;;;5016436;28;20187;-89
2022/08/25 08:47:51;;;;;;;13.60;2.13;;;30.30;98.90;;;;;;5017770;28;20183;-88
2022/08/25 08:50:38;;;;;;;8.52;2.33;;;30.30;99.30;;;;;;5017472;28;20251;-89
2022/08/25 08:53:06;;;;;;;8.05;2.22;;;30.40;98.80;;;;;;5017518;28;20211;-88
2022/08/25 08:55:34;;;;;;;12.88;2.28;;;30.60;98.10;;;;;;5024852;28;20211;-87
2022/08/25 08:58:07;;;;;;;7.35;1.63;;;30.60;97.30;;;;;;5015186;28;20172;-87
2022/08/25 09:00:40;;;;;;;4.80;2.10;;;30.60;97.40;;;;;;4999899;28;20588;-85
2022/08/25 09:03:11;;;;;;;9.73;1.70;;;30.90;97.60;;;;;;5015443;28;20280;-87
2022/08/25 09:05:47;;;;;;;5.40;1.75;;;31.00;96.10;;;;;;5014778;28;20176;-86
2022/08/25 09:08:16;;;;;;;7.65;2.03;;;30.90;96.40;;;;;;5014551;28;20196;-87
2022/08/25 09:11:02;;;;;;;8.43;2.10;;;31.00;96.20;;;;;;5015803;28;20238;-85
2022/08/25 09:13:46;;;;;;;8.70;1.40;;;31.20;96.50;;;;;;5015474;28;20164;-84
2022/08/25 09:19:22;;;;;;;7.72;1.83;;;31.20;96.40;;;;;;5030588;28;20245;-90
2022/08/25 09:21:53;;;;;;;8.13;1.70;;;31.30;94.90;;;;;;5036681;28;20198;-91
2022/08/25 09:24:41;;;;;;;7.45;1.67;;;31.30;95.60;;;;;;5036391;28;20179;-89
2022/08/25 09:27:24;;;;;;;4.68;1.50;;;31.50;94.90;;;;;;5036097;28;20205;-91
2022/08/25 09:30:02;;;;;;;3.75;1.75;;;31.50;94.00;;;;;;5035844;28;20269;-92
2022/08/25 09:32:32;;;;;;;6.80;1.52;;;31.70;94.40;;;;;;5019271;28;20656;-85
2022/08/25 09:35:00;;;;;;;1.67;1.58;;;31.80;94.30;;;;;;5015108;28;20215;-90
2022/08/25 09:37:25;;;;;;;10.73;1.88;;;31.80;94.00;;;;;;5015651;28;20174;-92
2022/08/25 09:39:51;;;;;;;4.97;1.65;;;31.90;94.30;;;;;;5015361;28;20279;-93
2022/08/25 09:42:19;;;;;;;3.95;1.70;;;32.00;93.30;;;;;;5015606;28;20199;-92
2022/08/25 09:44:47;;;;;;;5.32;1.15;;;32.10;92.60;;;;;;5015641;28;20184;-91
2022/08/25 09:47:24;;;;;;;4.72;1.55;;;32.00;92.30;;;;;;5015593;28;20172;-95
2022/08/25 09:50:01;;;;;;;6.70;1.95;;;32.10;92.00;;;;;;5014933;28;20204;-95
2022/08/25 09:52:27;;;;;;;5.00;1.40;;;32.10;92.60;;;;;;5014534;28;20664;-92
2022/08/25 09:55:03;;;;;;;5.28;1.38;;;32.00;91.70;;;;;;5014946;28;20311;-92
2022/08/25 09:57:35;;;;;;;6.68;1.40;;;32.10;91.70;;;;;;5016031;28;20159;-90
2022/08/25 10:00:20;;;;;;;2.75;1.40;;;32.20;91.70;;;;;;5016004;28;20180;-91
2022/08/25 10:03:07;;;;;;;5.68;1.50;;;32.10;91.70;;;;;;5015756;28;20265;-90
2022/08/25 10:05:37;;;;;;;12.23;1.75;;;32.20;91.70;;;;;;5019960;28;20509;-94
2022/08/25 10:08:30;;;;;;;5.05;1.85;;;32.20;90.80;;;;;;5025669;28;20215;-90
2022/08/25 10:10:58;;;;;;;5.97;1.50;;;32.40;90.90;;;;;;5015261;28;20172;-92
2022/08/25 10:13:34;;;;;;;5.97;1.30;;;32.40;90.50;;;;;;5014048;28;20174;-90
2022/08/25 10:16:31;;;;;;;6.60;1.80;;;32.40;90.80;;;;;;5014815;28;20214;-89
2022/08/25 10:19:22;;;;;;;7.95;1.65;;;32.50;90.10;;;;;;5012774;28;20640;-91
2022/08/25 10:22:04;;;;;;;5.05;1.83;;;32.70;90.40;;;;;;5014518;28;20224;-89
2022/08/25 10:24:30;;;;;;;1.60;1.50;;;32.40;89.10;;;;;;5014796;28;20168;-91
2022/08/25 10:27:18;;;;;;;3.10;1.77;;;32.40;89.70;;;;;;5014033;28;20168;-89
2022/08/25 10:29:49;;;;;;;7.50;1.45;;;32.60;90.00;;;;;;5014224;28;20168;-92
2022/08/25 10:32:39;;;;;;;2.78;1.33;;;32.80;87.50;;;;;;5013889;28;20203;-91
2022/08/25 10:35:42;;;;;;;2.20;1.35;;;32.90;88.40;;;;;;5030044;28;20607;-91
2022/08/25 10:38:08;;;;;;;4.03;1.67;;;33.10;87.90;;;;;;5034128;28;20266;-89
2022/08/25 10:40:55;;;;;;;16.33;1.48;;;33.00;87.90;;;;;;5033877;28;20266;-89
2022/08/25 10:43:31;;;;;;;5.35;1.63;;;33.10;87.80;;;;;;5031937;28;20164;-89
2022/08/25 10:46:23;;;;;;;1.45;1.35;;;33.20;87.20;;;;;;5014207;28;20232;-90
2022/08/25 10:49:07;;;;;;;6.72;1.50;;;33.10;86.10;;;;;;5009583;28;20211;-90
2022/08/25 10:52:13;;;;;;;3.17;1.60;;;32.90;86.00;;;;;;5013763;28;20206;-88
2022/08/25 10:54:38;;;;;;;9.43;1.80;;;32.90;86.60;;;;;;5014922;28;20219;-83
2022/08/25 10:57:39;;;;;;;7.10;2.40;;;32.90;85.60;;;;;;5034003;23;20219;-96
2022/08/25 11:00:12;;;;;;;4.85;1.73;;;32.80;85.40;;;;;;5017510;28;20294;-92
2022/08/25 11:02:51;;;;;;;9.48;2.25;;;32.90;85.10;;;;;;5017579;28;20195;-94
2022/08/25 11:05:35;;;;;;;5.70;1.30;;;33.00;84.20;;;;;;5016320;28;20243;-91
2022/08/25 11:08:18;;;;;;;1.55;1.27;;;32.80;84.30;;;;;;5017059;28;20213;-92
2022/08/25 11:10:53;;;;;;;2.88;1.13;;;33.00;85.20;;;;;;5025064;28;20260;-88
2022/08/25 11:13:34;;;;;;;6.82;1.88;;;33.00;84.80;;;;;;5025924;28;20171;-91
2022/08/25 11:16:13;;;;;;;11.98;1.70;;;33.20;84.80;;;;;;5004006;28;20223;-87
2022/08/25 11:19:40;;;;;;;7.25;2.20;;;33.40;83.00;;;;;;5036342;28;20186;-88
2022/08/25 11:22:50;;;;;;;7.90;1.10;;;33.50;81.60;;;;;;5035968;28;20203;-91
2022/08/25 11:25:33;;;;;;;13.55;1.80;;;33.60;81.50;;;;;;5032325;28;20235;-90
2022/08/25 11:28:29;;;;;;;1.60;1.50;;;33.60;81.80;;;;;;5030872;28;20179;-85
2022/08/25 11:30:59;;;;;;;3.17;1.48;;;33.60;81.40;;;;;;5033673;28;20187;-91
2022/08/25 11:33:28;;;;;;;1.92;1.30;;;33.60;82.20;;;;;;5030130;28;20667;-86
2022/08/25 11:36:05;;;;;;;2.60;1.55;;;33.60;81.30;;;;;;5028789;28;20207;-90
2022/08/25 11:39:04;;;;;;;4.82;1.60;;;33.60;81.80;;;;;;5019842;28;20168;-91
2022/08/25 11:41:38;;;;;;;10.77;1.48;;;33.60;81.20;;;;;;5014764;28;20183;-93
2022/08/25 11:44:31;;;;;;;5.38;1.88;;;33.60;80.10;;;;;;5015780;28;20178;-92
2022/08/25 11:47:19;;;;;;;3.75;1.50;;;33.60;80.20;;;;;;5025211;28;20244;-88
2022/08/25 11:49:50;;;;;;;2.45;1.30;;;33.50;81.00;;;;;;5022726;28;20160;-93
2022/08/25 11:52:41;;;;;;;1.50;1.40;;;33.50;79.70;;;;;;5024736;28;20180;-83
2022/08/25 11:55:15;;;;;;;6.63;1.45;;;33.60;79.50;;;;;;5025269;28;20214;-88
2022/08/25 11:57:45;;;;;;;6.57;1.48;;;33.60;80.00;;;;;;5021602;28;20191;-90
2022/08/25 12:00:55;;;;;;;5.13;1.48;;;33.60;81.80;;;;;;5024396;28;20203;-87
2022/08/25 12:03:36;;;;;;;9.82;1.80;;;33.60;80.90;;;;;;5010411;28;20267;-86
2022/08/25 12:06:41;;;;;;;1.40;1.27;;;33.60;81.10;;;;;;5029529;28;20172;-92
2022/08/25 12:09:22;;;;;;;1.92;1.45;;;33.50;81.40;;;;;;5031731;28;20151;-93
2022/08/25 12:11:53;;;;;;;7.55;1.58;;;33.40;80.70;;;;;;5031979;28;20175;-92
2022/08/25 12:14:25;;;;;;;6.57;1.73;;;33.50;81.00;;;;;;5035125;28;20215;-85
2022/08/25 12:16:52;;;;;;;14.75;1.70;;;33.60;80.60;;;;;;5040916;28;20187;-83
2022/08/25 12:19:36;;;;;;;2.22;1.88;;;33.60;80.60;;;;;;5040709;28;20356;-95
2022/08/25 12:22:08;;;;;;;1.77;1.40;;;33.80;80.20;;;;;;5036626;28;20193;-84
2022/08/25 12:24:41;;;;;;;2.55;1.50;;;34.00;79.60;;;;;;5026738;28;20176;-90
2022/08/25 12:27:35;;;;;;;17.30;1.98;;;34.00;79.40;;;;;;5034065;28;20240;-87
2022/08/25 12:30:39;;;;;;;7.57;1.30;;;33.80;79.50;;;;;;5031293;28;20199;-92
2022/08/25 12:33:24;;;;;;;1.40;1.30;;;33.90;79.30;;;;;;5033083;28;20188;-90
2022/08/25 12:36:31;;;;;;;6.40;1.65;;;34.10;79.80;;;;;;5033100;28;20204;-85
2022/08/25 12:39:20;;;;;;;7.07;1.27;;;34.20;79.50;;;;;;5040156;28;20195;-83
2022/08/25 12:42:43;;;;;;;4.13;1.50;;;34.30;78.70;;;;;;5031050;28;20195;-85
2022/08/25 12:45:24;;;;;;;1.55;1.10;;;34.40;77.80;;;;;;5031685;28;20184;-87
2022/08/25 12:47:56;;;;;;;5.25;1.63;;;34.50;79.70;;;;;;5040089;28;20172;-83
2022/08/25 12:50:33;;;;;;;2.05;1.67;;;34.40;78.30;;;;;;5042232;28;20176;-84
2022/08/25 12:53:26;;;;;;;1.58;1.45;;;34.20;78.20;;;;;;5112620;23;20214;-90
2022/08/25 12:56:16;;;;;;;3.03;1.50;;;34.10;78.30;;;;;;5054810;28;20214;-89
2022/08/25 12:59:07;;;;;;;6.35;1.52;;;34.00;78.10;;;;;;5052943;28;20198;-91
2022/08/25 13:01:45;;;;;;;10.15;1.55;;;34.10;78.60;;;;;;5048162;28;20198;-92
2022/08/25 13:04:37;;;;;;;7.63;1.80;;;34.20;78.10;;;;;;5049305;28;20160;-94
2022/08/25 13:07:22;;;;;;;7.75;1.80;;;33.90;78.60;;;;;;5050674;28;20160;-88
2022/08/25 13:10:02;;;;;;;4.88;1.63;;;34.00;79.00;;;;;;5047539;28;20187;-89
2022/08/25 13:12:34;;;;;;;5.35;1.50;;;34.20;78.30;;;;;;5046115;28;20977;-95